Tubbergen, Netherlands
Current Conditions -  °F | °C
As of 1:20 AM on Monday 26 Jan 2015 (Local Time) from EDDG Reporting Station
Haze Haze  
Wind Chill: 31°   Ceiling: 300
Heat Index: 37°   Visibility: 1.1mi
Dew Point: 37°   Wind: 8mph
Humidity: 100%   Direction: 200°SSW
Pressure: 30.27"   Gusts: NA
Location:  52.41°N, 6.78°E
Report Text: EDDG 260020Z 20007KT 1800 BR BKN003 03/03 Q1025 TEMPO 1200
Loading
Personal Weather Stations






























Interactive Weather Map New forecast layout! Learn more

10-Day Weather Forecast

Advertisements
Track Severe Weather on mobile